Time;durP1;ratioP1;P1;durP2;ratioP2;P2;SDS_P1;SDS_P2;PMS_P1;PMS_P2;Temp;Humidity;BMP_temperature;BMP_pressure;BME280_temperature;BME280_humidity;BME280_pressure;Samples;Min_cycle;Max_cycle;Signal;HPM_P1;HPM_P2
2023/04/15 00:00:29;;;;;;;23.90;15.13;;;;;;;5.78;100.00;101003.97;4947982;28;20202;-46
2023/04/15 00:02:55;;;;;;;23.83;16.10;;;;;;;5.78;100.00;100997.78;4971554;28;20194;-49
2023/04/15 00:05:21;;;;;;;23.40;15.85;;;;;;;5.80;100.00;100993.31;4971518;28;20221;-46
2023/04/15 00:07:46;;;;;;;21.65;15.45;;;;;;;5.82;100.00;100994.16;4969974;28;20257;-45
2023/04/15 00:10:13;;;;;;;26.10;16.58;;;;;;;5.79;100.00;100988.88;4954115;28;20196;-45
2023/04/15 00:12:39;;;;;;;25.20;15.73;;;;;;;5.81;100.00;100987.06;4970651;28;20182;-45
2023/04/15 00:15:07;;;;;;;21.10;14.73;;;;;;;5.80;100.00;100988.00;4971348;28;20841;-47
2023/04/15 00:17:33;;;;;;;22.45;15.60;;;;;;;5.81;100.00;100986.22;4970933;28;20186;-46
2023/04/15 00:19:58;;;;;;;23.25;15.13;;;;;;;5.79;100.00;100983.56;4970950;28;20253;-46
2023/04/15 00:22:25;;;;;;;23.17;14.75;;;;;;;5.81;100.00;100970.25;4945826;28;20216;-46
2023/04/15 00:24:52;;;;;;;23.10;15.80;;;;;;;5.84;100.00;100978.16;4971072;28;20212;-45
2023/04/15 00:27:18;;;;;;;24.45;17.05;;;;;;;5.83;100.00;100987.06;4971275;28;20273;-47
2023/04/15 00:29:44;;;;;;;27.70;16.40;;;;;;;5.82;100.00;100986.19;4939979;28;20317;-46
2023/04/15 00:32:09;;;;;;;25.48;16.02;;;;;;;5.86;100.00;100979.03;4969971;28;20582;-45
2023/04/15 00:34:35;;;;;;;22.05;15.52;;;;;;;5.84;100.00;100991.47;4970676;28;20197;-45
2023/04/15 00:37:01;;;;;;;23.15;13.80;;;;;;;5.84;100.00;100991.47;4971016;28;20684;-45
2023/04/15 00:39:27;;;;;;;21.52;14.32;;;;;;;5.83;100.00;100992.38;4970805;28;20214;-49
2023/04/15 00:41:53;;;;;;;25.45;15.98;;;;;;;5.85;100.00;100982.59;4969570;28;20658;-47
2023/04/15 00:44:18;;;;;;;22.02;14.80;;;;;;;5.84;100.00;100983.47;4942940;28;20273;-48
2023/04/15 00:46:45;;;;;;;20.45;14.02;;;;;;;5.83;100.00;100979.97;4971091;28;20178;-47
2023/04/15 00:49:11;;;;;;;21.95;14.35;;;;;;;5.83;100.00;100984.41;4953318;28;20194;-47
2023/04/15 00:51:37;;;;;;;24.52;14.43;;;;;;;5.85;100.00;100977.28;4968781;28;20248;-48
2023/04/15 00:54:03;;;;;;;20.88;13.93;;;;;;;5.83;100.00;100979.97;4970831;28;20182;-48
2023/04/15 00:56:30;;;;;;;23.15;13.52;;;;;;;5.83;100.00;100974.63;4970759;28;20194;-48
2023/04/15 00:58:57;;;;;;;22.48;13.70;;;;;;;5.83;100.00;100987.94;4953201;28;20590;-48
2023/04/15 01:01:25;;;;;;;25.17;15.43;;;;;;;5.86;100.00;100981.69;4970251;28;20189;-47
2023/04/15 01:03:51;;;;;;;25.83;14.73;;;;;;;5.86;100.00;100973.69;4970106;28;20177;-46
2023/04/15 01:06:17;;;;;;;25.73;14.98;;;;;;;5.85;100.00;100983.47;4948227;28;20181;-45
2023/04/15 01:08:44;;;;;;;26.83;15.52;;;;;;;5.84;100.00;100973.75;4970971;28;20206;-46
2023/04/15 01:11:11;;;;;;;21.30;14.25;;;;;;;5.86;100.00;100985.25;4970026;28;20244;-45
2023/04/15 01:13:39;;;;;;;22.85;15.02;;;;;;;5.88;100.00;100966.59;4970728;28;20189;-46
2023/04/15 01:16:05;;;;;;;28.13;15.75;;;;;;;5.88;100.00;100980.78;4952220;28;20646;-48
2023/04/15 01:18:31;;;;;;;27.58;15.73;;;;;;;5.89;100.00;100979.00;4970459;28;20325;-47
2023/04/15 01:21:01;;;;;;;25.50;14.90;;;;;;;5.89;100.00;100977.19;4970015;28;20229;-45
2023/04/15 01:23:26;;;;;;;21.23;13.57;;;;;;;5.88;100.00;100975.47;4975605;28;20273;-47
2023/04/15 01:25:53;;;;;;;24.25;14.73;;;;;;;5.90;100.00;100980.72;4971144;28;20329;-46
2023/04/15 01:28:19;;;;;;;24.95;13.85;;;;;;;5.89;100.00;100986.97;4970526;28;20198;-46
2023/04/15 01:30:44;;;;;;;21.35;13.60;;;;;;;5.90;100.00;100978.97;4969671;28;20179;-46
2023/04/15 01:33:11;;;;;;;20.30;13.32;;;;;;;5.91;100.00;100990.47;4970181;28;20186;-45
2023/04/15 01:35:37;;;;;;;20.08;14.50;;;;;;;5.92;100.00;100989.56;4947237;28;20197;-46
2023/04/15 01:38:08;;;;;;;22.08;14.43;;;;;;;5.90;100.00;100978.97;4970575;28;20204;-44
2023/04/15 01:40:34;;;;;;;21.63;14.00;;;;;;;5.94;100.00;100980.69;4941164;28;20305;-45
2023/04/15 01:43:01;;;;;;;24.65;14.07;;;;;;;5.95;100.00;100989.56;4969559;28;20282;-43
2023/04/15 01:45:27;;;;;;;24.88;15.15;;;;;;;5.95;100.00;100989.56;4971544;28;20182;-44
2023/04/15 01:47:53;;;;;;;21.25;13.45;;;;;;;5.95;100.00;100978.94;4973764;28;20312;-45
2023/04/15 01:50:19;;;;;;;24.85;15.02;;;;;;;5.92;100.00;100979.78;4973874;28;20298;-46
2023/04/15 01:52:45;;;;;;;23.38;15.57;;;;;;;5.93;100.00;100978.03;4944967;28;20171;-44
2023/04/15 01:55:12;;;;;;;23.55;14.80;;;;;;;5.93;100.00;100980.69;4948518;28;20174;-45
2023/04/15 01:57:37;;;;;;;23.73;14.57;;;;;;;5.96;100.00;100978.00;4957688;28;20182;-48
2023/04/15 02:00:06;;;;;;;25.67;14.10;;;;;;;5.94;100.00;100985.09;4946611;28;20213;-46
2023/04/15 02:02:38;;;;;;;26.80;14.43;;;;;;;5.93;100.00;100984.22;4971892;28;20496;-46
2023/04/15 02:05:04;;;;;;;25.85;14.40;;;;;;;5.96;100.00;100984.19;4954864;28;20189;-46
2023/04/15 02:07:31;;;;;;;25.88;15.10;;;;;;;5.95;100.00;100978.94;4973132;28;20185;-44
2023/04/15 02:09:57;;;;;;;24.85;14.15;;;;;;;5.94;100.00;100991.31;4972759;28;20178;-44
2023/04/15 02:12:22;;;;;;;24.60;14.15;;;;;;;5.95;100.00;100976.28;4955203;28;20615;-46
2023/04/15 02:14:48;;;;;;;29.08;16.25;;;;;;;5.95;100.00;100974.47;4951873;28;20182;-47
2023/04/15 02:17:14;;;;;;;28.40;15.55;;;;;;;5.91;100.00;100970.09;4973393;28;20633;-44
2023/04/15 02:19:42;;;;;;;23.17;15.52;;;;;;;5.94;100.00;100975.38;4972297;28;20651;-45
2023/04/15 02:22:08;;;;;;;25.85;15.60;;;;;;;5.96;100.00;100981.53;4948340;28;20186;-45
2023/04/15 02:24:34;;;;;;;32.67;16.35;;;;;;;5.95;100.00;100978.94;4973284;28;20659;-43
2023/04/15 02:27:02;;;;;;;26.95;16.90;;;;;;;5.94;100.00;100971.81;4972140;28;20669;-44
2023/04/15 02:29:27;;;;;;;27.00;15.77;;;;;;;5.94;100.00;100979.78;4973172;28;20297;-46
2023/04/15 02:31:53;;;;;;;27.70;16.70;;;;;;;5.94;100.00;100971.81;4972338;28;20281;-44
2023/04/15 02:34:19;;;;;;;28.95;16.45;;;;;;;5.95;100.00;100985.13;4972769;28;20204;-46
2023/04/15 02:36:47;;;;;;;32.22;17.77;;;;;;;5.94;100.00;100986.00;4955017;28;20684;-45
2023/04/15 02:39:15;;;;;;;27.50;16.75;;;;;;;5.93;100.00;100986.03;4932101;28;20217;-45
2023/04/15 02:41:42;;;;;;;29.35;16.85;;;;;;;5.94;100.00;100977.13;4972547;28;20186;-46
2023/04/15 02:44:11;;;;;;;34.92;18.70;;;;;;;5.96;100.00;100996.63;4956533;28;20174;-46
2023/04/15 02:46:37;;;;;;;36.50;19.50;;;;;;;5.97;100.00;100979.78;4953566;28;20185;-48
2023/04/15 02:49:03;;;;;;;31.13;19.63;;;;;;;5.97;100.00;100977.13;4955433;28;20197;-46
2023/04/15 02:51:31;;;;;;;37.20;20.75;;;;;;;6.00;100.00;100965.56;4943539;28;20229;-44
2023/04/15 02:53:57;;;;;;;36.00;19.98;;;;;;;6.01;100.00;100983.25;4946254;28;20772;-45
2023/04/15 02:56:22;;;;;;;33.13;19.35;;;;;;;6.04;100.00;100985.88;4972687;28;20296;-46
2023/04/15 02:58:49;;;;;;;35.80;20.35;;;;;;;6.03;100.00;100989.41;4952993;28;20209;-46
2023/04/15 03:01:15;;;;;;;35.10;19.92;;;;;;;6.04;100.00;100991.19;4968866;28;20173;-46
2023/04/15 03:03:41;;;;;;;38.33;20.10;;;;;;;6.04;100.00;100991.19;4972447;28;20186;-45
2023/04/15 03:06:07;;;;;;;36.20;20.50;;;;;;;6.04;100.00;100991.19;4952711;28;20260;-47
2023/04/15 03:08:33;;;;;;;38.33;21.73;;;;;;;6.04;100.00;100992.06;4954686;28;20225;-46
2023/04/15 03:11:01;;;;;;;45.50;24.83;;;;;;;6.04;100.00;100981.44;4971659;28;20178;-46
2023/04/15 03:13:27;;;;;;;46.58;25.33;;;;;;;6.03;100.00;100982.31;4957194;28;20178;-44
2023/04/15 03:15:53;;;;;;;47.67;25.08;;;;;;;6.03;100.00;100984.97;4972651;28;20535;-45
2023/04/15 03:18:22;;;;;;;49.15;24.45;;;;;;;6.05;100.00;100990.28;4954610;28;20208;-46
2023/04/15 03:20:48;;;;;;;50.70;24.58;;;;;;;6.08;100.00;100988.44;4971190;28;20214;-43
2023/04/15 03:23:13;;;;;;;52.60;25.80;;;;;;;6.08;100.00;100988.44;4945487;28;20181;-44
2023/04/15 03:25:39;;;;;;;58.42;25.10;;;;;;;6.06;100.00;100995.56;4970678;28;20641;-45
2023/04/15 03:28:06;;;;;;;59.58;27.83;;;;;;;6.07;100.00;100989.34;4971618;28;20264;-45
2023/04/15 03:30:32;;;;;;;52.65;28.02;;;;;;;6.08;100.00;100979.56;4952221;28;20175;-44
2023/04/15 03:32:57;;;;;;;59.08;28.50;;;;;;;6.09;100.00;100992.84;4954257;28;20174;-46
2023/04/15 03:35:23;;;;;;;58.53;28.83;;;;;;;6.08;100.00;100984.88;4973174;28;20190;-47
2023/04/15 03:37:48;;;;;;;64.38;30.00;;;;;;;6.08;100.00;100990.22;4971295;28;20244;-45
2023/04/15 03:40:14;;;;;;;56.78;29.73;;;;;;;6.05;100.00;100987.63;4971750;28;20216;-45
2023/04/15 03:42:40;;;;;;;62.85;28.17;;;;;;;6.03;100.00;100971.66;4971027;28;20249;-45
2023/04/15 03:45:06;;;;;;;58.58;28.52;;;;;;;6.01;100.00;100983.25;4971437;28;20182;-46
2023/04/15 03:47:32;;;;;;;59.42;29.52;;;;;;;6.03;100.00;100970.81;4971660;28;20202;-45
2023/04/15 03:49:57;;;;;;;62.13;30.17;;;;;;;6.04;100.00;100984.09;4968607;28;20233;-47
2023/04/15 03:52:23;;;;;;;61.92;30.05;;;;;;;6.03;100.00;100979.66;4967966;28;20177;-46
2023/04/15 03:54:48;;;;;;;61.28;29.52;;;;;;;6.03;100.00;100977.00;4970599;28;20735;-46
2023/04/15 03:57:14;;;;;;;70.13;31.02;;;;;;;6.03;100.00;100989.41;4971117;28;20273;-46
2023/04/15 03:59:39;;;;;;;68.82;31.77;;;;;;;6.01;100.00;100984.13;4970912;28;20316;-45
2023/04/15 04:02:05;;;;;;;64.88;30.98;;;;;;;6.02;100.00;100980.56;4970491;28;20202;-46
2023/04/15 04:04:30;;;;;;;71.47;31.48;;;;;;;6.01;100.00;100983.25;4970243;28;20178;-45
2023/04/15 04:06:56;;;;;;;73.85;34.40;;;;;;;6.03;100.00;100977.00;4970605;28;20224;-47
2023/04/15 04:09:21;;;;;;;74.63;33.90;;;;;;;6.02;100.00;100977.91;4970981;28;20202;-45
2023/04/15 04:11:47;;;;;;;76.38;35.88;;;;;;;6.04;100.00;100989.41;4970653;28;20280;-45
2023/04/15 04:14:12;;;;;;;74.18;36.95;;;;;;;6.06;100.00;100987.59;4971024;28;20229;-44
2023/04/15 04:16:38;;;;;;;76.28;36.35;;;;;;;6.06;100.00;101000.91;4970879;28;20704;-44
2023/04/15 04:19:03;;;;;;;76.28;34.83;;;;;;;6.09;100.00;101005.28;4970990;28;20218;-45
2023/04/15 04:21:29;;;;;;;75.57;35.25;;;;;;;6.07;100.00;101007.09;4970177;28;20540;-45
2023/04/15 04:23:55;;;;;;;81.72;37.13;;;;;;;6.06;100.00;101011.53;4970920;28;20186;-47
2023/04/15 04:26:21;;;;;;;72.60;35.33;;;;;;;6.09;100.00;101002.63;4971112;28;20189;-48
2023/04/15 04:28:47;;;;;;;79.38;37.40;;;;;;;6.05;100.00;101001.78;4970630;28;20669;-46
2023/04/15 04:31:12;;;;;;;80.97;36.65;;;;;;;6.07;100.00;101005.31;4970405;28;20565;-44
2023/04/15 04:33:38;;;;;;;77.40;35.47;;;;;;;6.07;100.00;101001.78;4970674;28;20196;-46
2023/04/15 04:36:04;;;;;;;72.85;36.03;;;;;;;6.06;100.00;101008.88;4970222;28;20678;-44
2023/04/15 04:38:29;;;;;;;76.22;37.05;;;;;;;6.06;100.00;101010.66;4970335;28;20197;-43
2023/04/15 04:40:55;;;;;;;75.65;36.92;;;;;;;6.06;100.00;101003.56;4969976;28;20264;-45
2023/04/15 04:43:21;;;;;;;78.53;37.58;;;;;;;6.07;100.00;101013.28;4925329;28;20892;-46
2023/04/15 04:45:46;;;;;;;78.65;37.45;;;;;;;6.08;100.00;101004.41;4943588;28;20182;-47
2023/04/15 04:48:12;;;;;;;80.13;39.13;;;;;;;6.09;100.00;101014.13;4970373;28;20233;-45
2023/04/15 04:50:37;;;;;;;77.97;38.30;;;;;;;6.11;100.00;101008.81;4969837;28;20178;-45
2023/04/15 04:53:03;;;;;;;81.88;40.58;;;;;;;6.13;100.00;101014.97;4970319;28;20189;-45
2023/04/15 04:55:29;;;;;;;87.95;41.53;;;;;;;6.13;100.00;101013.19;4945621;28;20252;-46
2023/04/15 04:57:54;;;;;;;83.35;41.63;;;;;;;6.16;100.00;101021.09;4970139;28;20197;-46
2023/04/15 05:00:20;;;;;;;85.35;43.15;;;;;;;6.18;100.00;101019.28;4969367;28;20194;-46
2023/04/15 05:02:45;;;;;;;82.88;40.85;;;;;;;6.14;100.00;101017.63;4969838;28;20239;-47
2023/04/15 05:05:12;;;;;;;80.40;41.67;;;;;;;6.17;100.00;101017.56;4969886;28;20182;-47
2023/04/15 05:07:38;;;;;;;78.32;39.60;;;;;;;6.16;100.00;101023.75;4969800;28;20396;-46
2023/04/15 05:10:04;;;;;;;90.65;43.60;;;;;;;6.16;100.00;101017.56;4970019;28;20193;-44
2023/04/15 05:12:31;;;;;;;87.60;43.38;;;;;;;6.17;100.00;101016.69;4969617;28;20184;-47
2023/04/15 05:14:56;;;;;;;90.22;43.05;;;;;;;6.16;100.00;101010.47;4969318;28;20189;-47
2023/04/15 05:17:22;;;;;;;89.50;42.70;;;;;;;6.18;100.00;101015.75;4970091;28;20570;-47
2023/04/15 05:19:47;;;;;;;97.78;47.35;;;;;;;6.22;100.00;101027.25;4970892;28;20214;-46
2023/04/15 05:22:13;;;;;;;91.75;46.75;;;;;;;6.22;100.00;101035.22;4972783;28;20190;-47
2023/04/15 05:24:38;;;;;;;94.03;47.45;;;;;;;6.25;100.00;101032.50;4973876;28;20591;-45
2023/04/15 05:27:04;;;;;;;96.32;53.17;;;;;;;6.32;100.00;101031.47;4973467;28;20539;-45
2023/04/15 05:29:30;;;;;;;94.50;53.47;;;;;;;6.39;100.00;101027.81;4973604;28;20665;-46
2023/04/15 05:31:55;;;;;;;102.22;55.78;;;;;;;6.42;100.00;101042.84;4972683;28;20221;-45
2023/04/15 05:34:21;;;;;;;104.15;56.30;;;;;;;6.45;100.00;101034.81;4974119;23;20304;-47
2023/04/15 05:36:47;;;;;;;111.70;59.35;;;;;;;6.46;100.00;101045.44;4992521;28;20185;-49
2023/04/15 05:39:13;;;;;;;101.28;57.47;;;;;;;6.47;100.00;101051.63;4980455;28;20296;-49
2023/04/15 05:41:38;;;;;;;104.00;57.35;;;;;;;6.51;100.00;101056.88;4975684;28;20193;-47
2023/04/15 05:44:04;;;;;;;111.15;58.83;;;;;;;6.53;100.00;101048.84;4978451;28;20178;-47
2023/04/15 05:46:30;;;;;;;105.93;58.90;;;;;;;6.52;100.00;101058.63;4978526;28;20225;-46
2023/04/15 05:48:56;;;;;;;105.40;59.60;;;;;;;6.52;100.00;101049.78;4975803;28;20542;-48
2023/04/15 05:51:21;;;;;;;100.03;59.15;;;;;;;6.57;100.00;101058.56;4976200;28;20640;-45
2023/04/15 05:53:47;;;;;;;97.50;57.60;;;;;;;6.56;100.00;101057.69;4976270;28;20193;-46
2023/04/15 05:56:12;;;;;;;108.55;57.67;;;;;;;6.59;100.00;101052.28;4983687;28;20174;-47
2023/04/15 05:58:38;;;;;;;98.88;58.75;;;;;;;6.60;100.00;101046.06;4979983;28;20194;-46
2023/04/15 06:01:04;;;;;;;101.50;58.80;;;;;;;6.64;100.00;101049.53;4975704;28;20197;-48
2023/04/15 06:03:30;;;;;;;95.68;57.90;;;;;;;6.65;100.00;101058.41;4973370;28;20198;-47
2023/04/15 06:05:55;;;;;;;104.10;59.80;;;;;;;6.67;100.00;101052.16;4974412;28;20185;-47
2023/04/15 06:08:21;;;;;;;96.68;59.03;;;;;;;6.68;100.00;101063.69;4973678;28;20206;-46
2023/04/15 06:10:47;;;;;;;97.85;59.50;;;;;;;6.66;100.00;101057.50;4973555;28;20205;-46
2023/04/15 06:13:14;;;;;;;94.28;56.70;;;;;;;6.65;100.00;101061.06;4973930;28;20210;-46
2023/04/15 06:15:40;;;;;;;89.53;57.03;;;;;;;6.68;100.00;101050.38;4979010;28;20243;-45
2023/04/15 06:18:05;;;;;;;91.05;57.20;;;;;;;6.72;100.00;101062.72;4986279;28;20205;-47
2023/04/15 06:20:31;;;;;;;90.28;56.65;;;;;;;6.71;100.00;101066.28;4993786;28;20204;-45
2023/04/15 06:22:58;;;;;;;90.38;54.15;;;;;;;6.67;100.00;101069.91;4993055;28;20672;-44
2023/04/15 06:25:24;;;;;;;87.80;56.55;;;;;;;6.74;100.00;101074.22;4971792;28;20572;-43
2023/04/15 06:27:49;;;;;;;80.90;53.97;;;;;;;6.72;100.00;101062.72;4976313;28;20222;-43
2023/04/15 06:30:15;;;;;;;82.78;54.13;;;;;;;6.67;100.00;101075.22;4976221;28;20205;-45
2023/04/15 06:32:40;;;;;;;77.80;53.03;;;;;;;6.65;100.00;101069.94;4976668;28;20648;-43
2023/04/15 06:35:06;;;;;;;78.20;51.85;;;;;;;6.67;100.00;101072.56;4976061;28;20698;-43
2023/04/15 06:37:32;;;;;;;79.72;52.55;;;;;;;6.66;100.00;101076.13;4975174;28;20206;-42
2023/04/15 06:39:57;;;;;;;75.68;50.25;;;;;;;6.62;100.00;101072.66;4971900;28;20210;-44
2023/04/15 06:42:23;;;;;;;68.85;48.83;;;;;;;6.67;100.00;101070.81;4973784;28;20182;-44
2023/04/15 06:44:49;;;;;;;66.70;47.58;;;;;;;6.63;100.00;101073.56;4978545;28;20264;-50
2023/04/15 06:47:14;;;;;;;73.85;47.80;;;;;;;6.70;100.00;101080.50;4974722;28;20265;-43
2023/04/15 06:49:41;;;;;;;67.10;46.25;;;;;;;6.70;100.00;101083.16;4975206;28;20205;-42
2023/04/15 06:52:07;;;;;;;65.18;44.92;;;;;;;6.66;100.00;101076.13;4974584;28;20189;-44
2023/04/15 06:54:33;;;;;;;59.63;43.17;;;;;;;6.71;100.00;101082.25;4974733;28;20197;-43
2023/04/15 06:56:59;;;;;;;57.72;43.10;;;;;;;6.74;100.00;101090.19;4977470;28;20178;-43
2023/04/15 06:59:24;;;;;;;61.08;43.58;;;;;;;6.76;100.00;101083.94;4978851;28;20246;-42
2023/04/15 07:01:50;;;;;;;56.22;42.47;;;;;;;6.83;100.00;101102.47;4955233;28;20632;-45
2023/04/15 07:04:16;;;;;;;58.22;41.75;;;;;;;6.78;100.00;101092.78;4971990;28;20182;-43
2023/04/15 07:06:42;;;;;;;61.17;41.50;;;;;;;6.82;100.00;101096.25;4971215;28;20201;-44
2023/04/15 07:09:07;;;;;;;57.28;40.80;;;;;;;6.88;100.00;101095.25;4969044;28;20198;-44
2023/04/15 07:11:33;;;;;;;56.38;40.17;;;;;;;6.91;100.00;101101.41;4971717;28;20186;-43
2023/04/15 07:13:58;;;;;;;54.55;40.33;;;;;;;6.90;100.00;101099.66;4972556;28;20236;-44
2023/04/15 07:16:24;;;;;;;54.80;39.85;;;;;;;6.85;100.00;101095.34;4975742;28;20181;-44
2023/04/15 07:18:49;;;;;;;53.10;39.03;;;;;;;6.81;100.00;101099.81;4977845;28;20209;-45
2023/04/15 07:21:15;;;;;;;52.72;39.83;;;;;;;6.89;100.00;101103.22;4974655;28;20185;-49
2023/04/15 07:23:41;;;;;;;54.85;38.67;;;;;;;6.82;100.00;101109.56;4974357;28;20396;-48
2023/04/15 07:26:07;;;;;;;56.58;40.33;;;;;;;6.88;100.00;101097.94;4977703;28;20281;-48
2023/04/15 07:28:32;;;;;;;53.30;38.55;;;;;;;6.83;100.00;101114.00;4971410;28;20697;-50
2023/04/15 07:30:58;;;;;;;53.35;37.20;;;;;;;6.74;100.00;101100.84;4970739;28;20181;-48
2023/04/15 07:33:24;;;;;;;55.95;37.30;;;;;;;6.74;100.00;101104.38;4971349;28;20178;-49
2023/04/15 07:35:49;;;;;;;58.08;38.28;;;;;;;6.74;100.00;101098.19;4969587;28;20577;-44
2023/04/15 07:38:15;;;;;;;49.80;37.95;;;;;;;6.74;100.00;101096.41;4972300;28;20202;-43
2023/04/15 07:40:41;;;;;;;51.65;37.70;;;;;;;6.82;100.00;101104.22;4972465;28;20248;-44
2023/04/15 07:43:07;;;;;;;53.20;38.22;;;;;;;6.99;100.00;101099.47;4954286;28;20274;-44
2023/04/15 07:45:33;;;;;;;51.17;37.10;;;;;;;7.00;100.00;101100.38;4989350;28;20636;-45
2023/04/15 07:47:58;;;;;;;62.67;38.60;;;;;;;7.07;100.00;101110.00;4992971;28;20244;-47
2023/04/15 07:50:24;;;;;;;55.38;37.28;;;;;;;7.10;100.00;101103.72;4978849;28;20174;-42
2023/04/15 07:52:50;;;;;;;48.17;36.55;;;;;;;7.12;100.00;101096.56;4973164;28;20582;-44
2023/04/15 07:55:18;;;;;;;44.17;36.25;;;;;;;7.11;100.00;101095.72;4990794;28;20185;-43
2023/04/15 07:57:46;;;;;;;50.63;35.25;;;;;;;7.20;100.00;101102.63;4991372;28;20173;-46
2023/04/15 08:00:12;;;;;;;49.70;34.90;;;;;;;7.21;100.00;101099.06;4979990;28;20340;-45
2023/04/15 08:02:42;;;;;;;48.17;34.67;;;;;;;7.17;100.00;101108.00;4971814;28;20788;-45
2023/04/15 08:05:12;;;;;;;49.53;34.53;;;;;;;7.09;100.00;101109.97;4971880;28;20186;-48
2023/04/15 08:07:38;;;;;;;42.03;33.45;;;;;;;7.04;100.00;101106.50;4971997;28;20545;-45
2023/04/15 08:10:05;;;;;;;47.20;34.30;;;;;;;7.19;100.00;101106.19;4970730;28;20174;-49
2023/04/15 08:12:30;;;;;;;46.33;35.25;;;;;;;7.20;100.00;101106.19;4970698;28;20596;-50
2023/04/15 08:14:56;;;;;;;44.58;34.35;;;;;;;7.30;100.00;101112.19;4970136;28;20181;-48
2023/04/15 08:17:22;;;;;;;45.00;36.05;;;;;;;7.42;100.00;101119.06;4972917;28;20547;-47
2023/04/15 08:19:48;;;;;;;46.35;35.38;;;;;;;7.31;100.00;101111.28;4973551;28;20244;-49
2023/04/15 08:22:14;;;;;;;40.88;33.08;;;;;;;7.26;100.00;101120.28;4973267;28;20271;-48
2023/04/15 08:24:40;;;;;;;45.08;33.30;;;;;;;7.25;100.00;101121.19;4970729;28;20215;-49
2023/04/15 08:27:06;;;;;;;42.08;32.60;;;;;;;7.22;100.00;101128.34;4973838;28;20193;-49
2023/04/15 08:29:33;;;;;;;45.15;33.15;;;;;;;7.19;100.00;101120.44;4970025;28;20296;-48
2023/04/15 08:32:00;;;;;;;41.38;34.15;;;;;;;7.13;100.00;101120.53;4972195;28;20205;-49
2023/04/15 08:34:26;;;;;;;41.30;32.75;;;;;;;7.14;100.00;101129.41;4978153;28;20182;-51
2023/04/15 08:59:37;;;;;;;36.75;30.08;;;;;;;7.38;100.00;101134.25;4992295;28;20699;-42
2023/04/15 09:02:04;;;;;;;40.33;30.95;;;;;;;7.37;100.00;101140.50;4997238;28;20493;-43
2023/04/15 09:04:30;;;;;;;33.75;29.23;;;;;;;7.43;100.00;101134.16;4992216;28;20213;-41
2023/04/15 09:06:56;;;;;;;37.70;29.55;;;;;;;7.56;100.00;101129.44;5002970;28;20809;-41
2023/04/15 09:09:21;;;;;;;41.35;29.08;;;;;;;7.55;100.00;101133.91;5000784;28;20201;-42
2023/04/15 09:11:48;;;;;;;43.75;29.98;;;;;;;7.84;100.00;101129.72;5001425;28;20176;-43
2023/04/15 09:14:14;;;;;;;36.25;28.20;;;;;;;8.12;100.00;101135.31;5001731;28;20509;-41
2023/04/15 09:16:57;;;;;;;34.83;28.92;;;;;;;8.37;100.00;101124.94;5003621;28;20255;-42
2023/04/15 09:19:23;;;;;;;35.40;25.77;;;;;;;8.33;100.00;101139.28;5003544;28;20209;-42
2023/04/15 09:21:51;;;;;;;34.45;25.75;;;;;;;8.43;100.00;101137.28;4998474;28;20177;-43
2023/04/15 09:24:17;;;;;;;32.97;26.40;;;;;;;8.72;100.00;101138.34;5001389;28;20522;-43
2023/04/15 09:26:43;;;;;;;32.78;25.85;;;;;;;8.71;100.00;101137.47;5004565;28;20189;-44
2023/04/15 09:29:13;;;;;;;35.95;25.08;;;;;;;9.04;100.00;101125.03;4999992;28;20556;-43
2023/04/15 09:31:40;;;;;;;30.80;23.88;;;;;;;8.86;100.00;101126.41;5005458;28;20169;-44
2023/04/15 09:34:06;;;;;;;32.25;24.25;;;;;;;9.02;100.00;101142.91;5010887;28;20625;-43
2023/04/15 09:36:47;;;;;;;28.33;24.38;;;;;;;8.93;100.00;101131.59;4998856;28;20659;-42
2023/04/15 09:39:13;;;;;;;29.17;23.33;;;;;;;9.02;100.00;101132.19;5007672;28;20304;-45
2023/04/15 09:41:39;;;;;;;27.10;21.60;;;;;;;9.10;100.00;101139.16;4999583;28;20192;-42
2023/04/15 09:44:06;;;;;;;26.80;21.90;;;;;;;9.02;100.00;101126.00;5001312;28;20200;-43
2023/04/15 09:46:42;;;;;;;29.83;23.70;;;;;;;9.46;100.00;101122.06;5004233;28;20668;-42
2023/04/15 09:49:09;;;;;;;24.65;21.90;;;;;;;9.56;100.00;101132.53;5006483;28;20189;-43
2023/04/15 09:51:35;;;;;;;28.45;21.05;;;;;;;9.55;100.00;101120.91;5004858;28;20188;-41
2023/04/15 09:54:01;;;;;;;23.17;20.70;;;;;;;9.61;100.00;101126.09;5002443;28;20223;-44
2023/04/15 09:56:40;;;;;;;25.02;20.70;;;;;;;9.61;100.00;101131.44;4993887;28;20276;-46
2023/04/15 09:59:07;;;;;;;25.08;21.67;;;;;;;9.89;100.00;101133.31;5010637;28;20220;-42
2023/04/15 10:01:33;;;;;;;25.75;20.92;;;;;;;9.67;100.00;101141.09;5004351;28;20177;-44
2023/04/15 10:04:02;;;;;;;25.65;21.40;;;;;;;9.62;100.00;101138.56;5003767;28;20181;-42
2023/04/15 10:06:29;;;;;;;24.20;20.55;;;;;;;9.65;100.00;101133.09;4999274;28;20185;-43
2023/04/15 10:08:56;;;;;;;26.88;21.17;;;;;;;9.58;100.00;101141.38;4999709;28;20255;-42
2023/04/15 10:11:23;;;;;;;26.73;21.05;;;;;;;9.69;100.00;101131.22;5001138;28;20220;-41
2023/04/15 10:13:50;;;;;;;25.95;21.13;;;;;;;9.77;100.00;101133.66;5003905;28;20239;-43
2023/04/15 10:16:19;;;;;;;24.77;21.10;;;;;;;10.00;100.00;101143.69;4998727;28;20243;-43
2023/04/15 10:18:57;;;;;;;28.00;21.10;;;;;;;10.39;100.00;101140.72;5002629;28;20205;-43
2023/04/15 10:21:23;;;;;;;23.27;20.80;;;;;;;10.34;100.00;101145.31;5003682;28;20176;-44
2023/04/15 10:23:50;;;;;;;25.05;20.48;;;;;;;10.17;100.00;101154.75;5004344;28;20184;-44
2023/04/15 10:26:17;;;;;;;23.02;19.58;;;;;;;10.26;100.00;101141.06;4999379;28;20251;-43
2023/04/15 10:28:48;;;;;;;24.42;20.08;;;;;;;9.94;100.00;101147.41;5002269;28;20196;-43
2023/04/15 10:31:15;;;;;;;23.75;20.48;;;;;;;9.69;100.00;101149.97;5004625;28;20189;-44
2023/04/15 10:33:43;;;;;;;26.55;21.80;;;;;;;9.21;100.00;101148.63;5001216;28;20177;-42
2023/04/15 10:36:10;;;;;;;28.45;21.38;;;;;;;9.11;100.00;101146.25;4998871;28;20260;-44
2023/04/15 10:38:44;;;;;;;28.20;22.55;;;;;;;9.10;100.00;101148.06;5004663;28;20204;-42
2023/04/15 10:41:22;;;;;;;31.13;24.48;;;;;;;9.26;100.00;101168.09;4999035;28;20201;-43
2023/04/15 10:43:52;;;;;;;27.95;22.67;;;;;;;9.73;100.00;101154.31;4995354;28;20192;-44
2023/04/15 10:46:20;;;;;;;26.38;22.20;;;;;;;10.06;100.00;101155.06;5002132;28;20181;-42
2023/04/15 10:48:51;;;;;;;26.60;21.30;;;;;;;10.11;100.00;101163.84;5003234;28;20208;-42
2023/04/15 10:51:27;;;;;;;24.83;22.20;;;;;;;10.26;100.00;101149.09;5000167;28;20308;-43
2023/04/15 10:53:56;;;;;;;22.92;20.38;;;;;;;10.62;100.00;101153.31;5000027;28;20215;-42
2023/04/15 10:56:22;;;;;;;27.75;21.83;;;;;;;10.71;100.00;101153.91;5000449;28;20640;-43
2023/04/15 10:58:47;;;;;;;23.77;21.38;;;;;;;10.40;100.00;101158.50;4996328;28;20301;-44
2023/04/15 11:01:13;;;;;;;24.70;22.08;;;;;;;10.15;100.00;101159.28;4996428;28;20263;-43
2023/04/15 11:03:41;;;;;;;24.70;22.23;;;;;;;10.24;100.00;101156.28;5003867;28;20268;-43
2023/04/15 11:06:07;;;;;;;26.67;22.67;;;;;;;10.72;100.00;101163.69;4999666;28;20188;-43
2023/04/15 11:09:01;;;;;;;24.45;21.85;;;;;;;11.07;100.00;101161.63;5000515;28;20232;-43
2023/04/15 11:12:05;;;;;;;30.15;23.08;;;;;;;10.78;100.00;101167.09;5008711;28;20682;-43
2023/04/15 11:14:33;;;;;;;25.98;22.55;;;;;;;10.61;100.00;101168.53;5001439;28;20180;-43
2023/04/15 11:16:58;;;;;;;25.48;22.40;;;;;;;10.57;100.00;101163.34;5001392;28;20295;-42
2023/04/15 11:19:24;;;;;;;23.83;21.13;;;;;;;9.59;100.00;101181.44;4995080;28;20664;-44
2023/04/15 11:21:50;;;;;;;28.40;23.63;;;;;;;9.32;100.00;101172.41;4996441;28;20243;-45
2023/04/15 11:24:27;;;;;;;29.33;25.10;;;;;;;9.48;100.00;101173.72;5004531;28;20635;-41
2023/04/15 11:26:57;;;;;;;29.40;25.17;;;;;;;9.86;100.00;101179.78;4997890;28;20200;-43
2023/04/15 11:29:30;;;;;;;30.27;25.70;;;;;;;10.21;100.00;101175.16;4998480;28;20195;-41